默认 日期 大小 文件数 浏览量 最新下载 xml
euphoria.磁力链接相关资源由用户搜索指令自动获取,结果来源于网络,本站不存储任何资料,亦不承担任何责任,请于24小时内删除,搜索到3409个磁力,用时3ms。
    ... Wentworth_Miller].avi": 803999744, "Euphoria.S01E01.WEB-DLRip.RGzsRutracker.[Wentworth_Miller ... Wentworth_Miller].avi": 900044800, "Euphoria.S01E02.WEB-DLRip.RGzsRutracker.[ ... Wentworth_Miller].avi": 848056320, "Euphoria.S01E03.WEB-DLRip.RGzsRutracker.[ ...
创建时间: 2019-07-27 20:44:53 大小:4.59 GB 文件数量:24 热度:16 最近下载:2025-01-01 06:21:03
    {"Euphoria.US.S01E07.WEB.h264-TBS.lnk": 1668, "Euphoria.US.S01E07.WEB.h264-TBS.mkv": 178695870}
创建时间: 2019-07-28 10:19:51 大小:170.42 MB 文件数量:2 热度:4 最近下载:2025-04-01 01:43:02
    ... WEB-DLRip-AVC_ivanes.mkv": 479899071, "Euphoria (2019) S01E02 WEB-DLRip-AVC_ivanes ... .mkv": 537196318, "Euphoria (2019) S01E03 WEB-DLRip-AVC_ivanes ... .mkv": 506194202, "Euphoria (2019) S01E04 WEB-DLRip-AVC_ivanes ...
创建时间: 2019-07-28 11:09:54 大小:2.74 GB 文件数量:6 热度:9 最近下载:2025-03-12 01:53:02
    {"Screens": {"screen0001.png": 2879381, "screen0002.png": 3360326, "screen0003.png": 5035042}, "www.Torrenting.com.txt": 102, "Euphoria.S01E07.1080p.HEVC.x265-MeGusta.mkv": 610763200, "Euphoria.S01E07.1080p.HEVC.x265-MeGusta.nfo": 1125}
创建时间: 2019-08-02 11:32:10 大小:593.22 MB 文件数量:6 热度:6 最近下载:2025-04-06 00:35:02
    {"euphoria.us.s01e07.720p.web.h264-tbs.mkv": 774428178, "euphoria.us.s01e07.720p.web.h264-tbs.nfo": 48}
创建时间: 2019-08-02 11:35:21 大小:738.55 MB 文件数量:2 热度:3 最近下载:2021-06-17 16:25:58
    ... Studio.mkv": 1220839154, "Euphoria.S01E02.720p.WEB-DLRip.TUMBLER ... Studio.mkv": 1509554641, "Euphoria.S01E03.720p.WEB-DLRip.TUMBLER ... Studio.mkv": 1350299538, "Euphoria.S01E04.720p.WEB-DLRip.TUMBLER ... Studio.mkv": 1220233115, "Euphoria.S01E05.720p.WEB-DLRip.TUMBLER ...
创建时间: 2019-08-02 14:22:13 大小:8.49 GB 文件数量:7 热度:6 最近下载:2024-05-08 21:42:02
    ... 764434432, "Euphoria.S01E02.400p.Octopus.avi": 866318336, "Euphoria.S01E03.400p.Octopus ... .avi": 818786304, "Euphoria.S01E04.400p. ... Octopus.avi": 790566912, "Euphoria.S01E05.400p. ...
创建时间: 2019-08-02 14:28:18 大小:5.23 GB 文件数量:7 热度:5 最近下载:2024-06-12 18:37:01
    ... .264-EniaHD.mkv": 3728752556, "Euphoria.US.S01E03.Made.You.Look ... 264-EniaHD.mkv": 3818502090, "Euphoria.US.S01E04.Shook.Ones.Pt ... .264-EniaHD.mkv": 3672878554, "Euphoria.US.S01E06.The.Next.Episode ... .264-EniaHD.mkv": 3460887550, "Euphoria.US.S01E02.Stuntin.Like.My ...
创建时间: 2019-08-02 15:45:15 大小:20.99 GB 文件数量:6 热度:11 最近下载:2024-06-15 11:19:02
    {"Screens": {"screen0001.png": 204983, "screen0002.png": 48751, "screen0003.png": 209864, "screen0004.png": 105398}, "Euphoria.US.S01E07.XviD-AFG.avi": 402403460, "Euphoria.US.S01E07.XviD-AFG.nfo": 1156, "[TGx]Downloaded from torrentgalaxy.to .txt": 689}
创建时间: 2019-08-02 16:20:07 大小:384.31 MB 文件数量:7 热度:4 最近下载:2025-04-04 22:46:02
    ... .Studio.avi": 765032448, "Euphoria.S01E02.400p.WEB-DLRip.TUMBLER ... .Studio.avi": 878718976, "Euphoria.S01E03.400p.WEB-DLRip.TUMBLER ... .Studio.avi": 814614528, "Euphoria.S01E04.400p.WEB-DLRip.TUMBLER ... .Studio.avi": 854677504, "Euphoria.S01E05.400p.WEB-DLRip.TUMBLER ...
创建时间: 2019-08-02 17:45:29 大小:5.35 GB 文件数量:7 热度:7 最近下载:2024-09-15 23:27:01
    {"Euphoria.S01E01.720p.TVShows.mkv": 2112646105, "Euphoria.S01E02.720p.TVShows.mkv": 1932616386, "Euphoria.S01E03.720p.TVShows.mkv": 1766402811, "Euphoria.S01E04.720p.TVShows.mkv": 1799102470, "Euphoria.S01E05.720p.TVShows.mkv": 2311534867}
创建时间: 2019-08-02 17:55:44 大小:9.24 GB 文件数量:5 热度:5 最近下载:2021-06-17 16:25:58
    {"Euphoria.US.S01E07.WEB.h264-TBS.lnk": 1660, "Euphoria.US.S01E07.WEB.h264-TBS.mkv": 191362581}
创建时间: 2019-08-02 18:29:51 大小:182.5 MB 文件数量:2 热度:3 最近下载:2021-06-17 16:25:58
    {"Legenda": {"Euphoria.S01E06.720p.HBO.WEB-DL.DD2.0.H.264-Tars.srt": 40896}, "Euphoria.S01E06.720p.HBO.WEB-DL.DD2.0.H.264-Tars.mkv": 959587378}
创建时间: 2019-08-02 18:44:39 大小:915.17 MB 文件数量:2 热度:11 最近下载:2025-03-27 06:36:03
    ... srt": 59036}, "Rus": {"Euphoria.S01E01.WEB-DLRip.Novamedia.srt ... Novamedia.avi": 803999744, "Euphoria.S01E01.WEB-DLRip.Novamedia. ... Novamedia.avi": 900044800, "Euphoria.S01E02.WEB-DLRip.Novamedia. ... Novamedia.avi": 849001730, "Euphoria.S01E03.WEB-DLRip.Novamedia. ...
创建时间: 2019-08-02 21:30:13 大小:4.47 GB 文件数量:24 热度:8 最近下载:2025-02-15 18:42:01
    {"Downloaded from www.ettv.to .txt": 185, "euphoria.us.s01e07.720p.web.h264-tbs[ettv].mkv": 774428178}
创建时间: 2019-08-02 23:15:15 大小:738.55 MB 文件数量:2 热度:2 最近下载:2021-06-17 16:25:58
    {"Euphoria.s01e01.avi": 1119453184, "Euphoria.s01e02.avi": 1252898816, "Euphoria.s01e03.avi": 1180874752, "Euphoria.s01e04.avi": 1154332672, "Euphoria.s01e05.avi": 1101172736, "Euphoria.s01e06.avi": 1047717888}
创建时间: 2019-08-03 00:16:13 大小:6.39 GB 文件数量:6 热度:7 最近下载:2024-12-19 07:12:02
    {"Euphoria.(US).S01E07.1080p.AMZN.WEB-DL.x265.10bit.EAC3.6.0-Qman[UTR].mkv": 1109195680}
创建时间: 2019-08-03 01:54:45 大小:1.03 GB 文件数量:1 热度:14 最近下载:2025-02-03 10:29:03
    {"PCTNEW ORG.url": 113, "DESCARGAS2020.url": 124, "Euphoria - Temporada 1 [HDTV][Cap.107][Castellano][www.descargas2020.org][www.pctnew.org].avi": 701368320}
创建时间: 2019-08-03 02:26:20 大小:668.88 MB 文件数量:3 热度:6 最近下载:2021-06-17 16:25:58
    ... 1931777705, "Euphoria.S01E02.720p.Octopus.mkv": 2643021179, "Euphoria.S01E03.720p.Octopus ... .mkv": 2280368829, "Euphoria.S01E04.720p. ... Octopus.mkv": 2238780218, "Euphoria.S01E05.720p. ...
创建时间: 2019-08-03 04:22:45 大小:14.47 GB 文件数量:7 热度:8 最近下载:2024-07-11 15:26:01
    {"RARBG.txt": 30, "RARBG_DO_NOT_MIRROR.exe": 99, "Euphoria.US.S01E07.The.Trials.and.Tribulations.of.Trying.to.Pee.While.Depressed.1080p.AMZN.WEB-DL.DDP5.1.H.264-KiNGS.mkv": 4721164338}
创建时间: 2019-08-03 04:33:37 大小:4.4 GB 文件数量:3 热度:8 最近下载:2025-04-08 20:22:02